Fallentimber, Pennsylvania
Current Conditions -  °F | °C
As of 12:54 AM on Sunday 26 Oct 2014 (Local Time) from KFIG Reporting Station
Clear Clear  
Wind Chill: 56°   Ceiling: Unl
Heat Index: 56°   Visibility: 10mi
Dew Point: 36°   Wind: 25mph
Humidity: 47%   Direction: 300°WNW
Pressure: 29.7"   Gusts: 37mph
Location:  40.69°N, 78.5°W
Report Text: KFIG 260454Z AUTO 30022G32KT 10SM CLR 13/02 A2970 RMK AO2 PK WND 30032/0454 SLP053 T01330022 401780061
Loading
Personal Weather Stations






























Interactive Weather Map
Tropical Storm Tracking
New forecast layout! Learn more

10-Day Weather Forecast

Advertisements
Track Severe Weather on mobile